sensor_id;sensor_type;location;lat;lon;timestamp;P1;durP1;ratioP1;P2;durP2;ratioP2
5831;SDS011;50943;51.448;7.646;2022-08-19T00:01:10;22.90;;;18.30;;
5831;SDS011;50943;51.448;7.646;2022-08-19T00:03:37;24.60;;;18.43;;
5831;SDS011;50943;51.448;7.646;2022-08-19T00:06:03;23.27;;;18.30;;
5831;SDS011;50943;51.448;7.646;2022-08-19T00:08:30;24.13;;;18.60;;
5831;SDS011;50943;51.448;7.646;2022-08-19T00:10:57;23.30;;;18.80;;
5831;SDS011;50943;51.448;7.646;2022-08-19T00:13:23;25.47;;;19.33;;
5831;SDS011;50943;51.448;7.646;2022-08-19T00:15:51;24.63;;;18.50;;
5831;SDS011;50943;51.448;7.646;2022-08-19T00:18:18;26.00;;;18.00;;
5831;SDS011;50943;51.448;7.646;2022-08-19T00:20:44;23.13;;;18.40;;
5831;SDS011;50943;51.448;7.646;2022-08-19T00:23:10;22.77;;;17.87;;
5831;SDS011;50943;51.448;7.646;2022-08-19T00:25:37;23.17;;;17.83;;
5831;SDS011;50943;51.448;7.646;2022-08-19T00:28:04;24.47;;;17.17;;
5831;SDS011;50943;51.448;7.646;2022-08-19T00:30:30;23.60;;;17.67;;
5831;SDS011;50943;51.448;7.646;2022-08-19T00:32:58;26.23;;;17.93;;
5831;SDS011;50943;51.448;7.646;2022-08-19T00:35:24;26.77;;;19.23;;
5831;SDS011;50943;51.448;7.646;2022-08-19T00:37:52;27.50;;;19.43;;
5831;SDS011;50943;51.448;7.646;2022-08-19T00:40:19;32.93;;;19.90;;
5831;SDS011;50943;51.448;7.646;2022-08-19T00:42:45;26.93;;;20.07;;
5831;SDS011;50943;51.448;7.646;2022-08-19T00:45:13;27.13;;;20.37;;
5831;SDS011;50943;51.448;7.646;2022-08-19T00:47:40;26.37;;;20.57;;
5831;SDS011;50943;51.448;7.646;2022-08-19T00:50:09;30.40;;;20.47;;
5831;SDS011;50943;51.448;7.646;2022-08-19T00:52:36;26.67;;;20.03;;
5831;SDS011;50943;51.448;7.646;2022-08-19T00:55:05;29.10;;;20.37;;
5831;SDS011;50943;51.448;7.646;2022-08-19T00:57:35;26.80;;;19.47;;
5831;SDS011;50943;51.448;7.646;2022-08-19T01:00:03;26.90;;;19.10;;
5831;SDS011;50943;51.448;7.646;2022-08-19T01:02:30;24.50;;;18.57;;
5831;SDS011;50943;51.448;7.646;2022-08-19T01:04:59;23.57;;;18.00;;
5831;SDS011;50943;51.448;7.646;2022-08-19T01:07:27;21.50;;;17.23;;
5831;SDS011;50943;51.448;7.646;2022-08-19T01:09:54;24.30;;;18.43;;
5831;SDS011;50943;51.448;7.646;2022-08-19T01:12:20;24.03;;;17.70;;
5831;SDS011;50943;51.448;7.646;2022-08-19T01:14:47;25.33;;;18.73;;
5831;SDS011;50943;51.448;7.646;2022-08-19T01:17:14;26.60;;;20.00;;
5831;SDS011;50943;51.448;7.646;2022-08-19T01:19:41;26.17;;;19.70;;
5831;SDS011;50943;51.448;7.646;2022-08-19T01:22:10;31.07;;;21.23;;
5831;SDS011;50943;51.448;7.646;2022-08-19T01:24:39;26.53;;;19.90;;
5831;SDS011;50943;51.448;7.646;2022-08-19T01:27:06;25.40;;;19.40;;
5831;SDS011;50943;51.448;7.646;2022-08-19T01:29:33;28.03;;;20.80;;
5831;SDS011;50943;51.448;7.646;2022-08-19T01:32:00;29.77;;;20.70;;
5831;SDS011;50943;51.448;7.646;2022-08-19T01:34:26;28.80;;;20.07;;
5831;SDS011;50943;51.448;7.646;2022-08-19T01:36:53;28.63;;;17.97;;
5831;SDS011;50943;51.448;7.646;2022-08-19T01:39:20;21.17;;;16.30;;
5831;SDS011;50943;51.448;7.646;2022-08-19T01:41:49;20.57;;;15.87;;
5831;SDS011;50943;51.448;7.646;2022-08-19T01:44:16;18.83;;;14.67;;
5831;SDS011;50943;51.448;7.646;2022-08-19T01:46:46;23.90;;;17.17;;
5831;SDS011;50943;51.448;7.646;2022-08-19T01:49:13;23.50;;;17.33;;
5831;SDS011;50943;51.448;7.646;2022-08-19T01:51:40;21.60;;;16.27;;
5831;SDS011;50943;51.448;7.646;2022-08-19T01:54:06;22.40;;;16.73;;
5831;SDS011;50943;51.448;7.646;2022-08-19T01:56:32;23.23;;;17.03;;
5831;SDS011;50943;51.448;7.646;2022-08-19T01:59:02;22.57;;;17.10;;
5831;SDS011;50943;51.448;7.646;2022-08-19T02:01:29;22.67;;;16.70;;
5831;SDS011;50943;51.448;7.646;2022-08-19T02:03:56;27.67;;;19.63;;
5831;SDS011;50943;51.448;7.646;2022-08-19T02:06:23;28.03;;;21.07;;
5831;SDS011;50943;51.448;7.646;2022-08-19T02:08:50;30.17;;;21.40;;
5831;SDS011;50943;51.448;7.646;2022-08-19T02:11:20;30.43;;;20.90;;
5831;SDS011;50943;51.448;7.646;2022-08-19T02:13:47;25.27;;;20.13;;
5831;SDS011;50943;51.448;7.646;2022-08-19T02:16:15;30.10;;;22.53;;
5831;SDS011;50943;51.448;7.646;2022-08-19T02:18:42;27.00;;;20.53;;
5831;SDS011;50943;51.448;7.646;2022-08-19T02:21:08;27.53;;;20.60;;
5831;SDS011;50943;51.448;7.646;2022-08-19T02:23:36;26.97;;;20.20;;
5831;SDS011;50943;51.448;7.646;2022-08-19T02:26:02;27.73;;;21.10;;
5831;SDS011;50943;51.448;7.646;2022-08-19T02:28:28;27.83;;;21.37;;
5831;SDS011;50943;51.448;7.646;2022-08-19T02:30:55;27.07;;;20.83;;
5831;SDS011;50943;51.448;7.646;2022-08-19T02:33:22;32.53;;;19.60;;
5831;SDS011;50943;51.448;7.646;2022-08-19T02:35:49;30.53;;;19.47;;
5831;SDS011;50943;51.448;7.646;2022-08-19T02:38:15;26.97;;;21.40;;
5831;SDS011;50943;51.448;7.646;2022-08-19T02:40:55;26.30;;;20.67;;
5831;SDS011;50943;51.448;7.646;2022-08-19T02:43:22;28.10;;;20.87;;
5831;SDS011;50943;51.448;7.646;2022-08-19T02:45:49;25.57;;;19.53;;
5831;SDS011;50943;51.448;7.646;2022-08-19T02:48:16;24.90;;;18.80;;
5831;SDS011;50943;51.448;7.646;2022-08-19T02:50:45;22.63;;;17.90;;
5831;SDS011;50943;51.448;7.646;2022-08-19T02:53:12;25.83;;;19.30;;
5831;SDS011;50943;51.448;7.646;2022-08-19T02:55:42;27.30;;;18.03;;
5831;SDS011;50943;51.448;7.646;2022-08-19T02:58:08;29.10;;;21.60;;
5831;SDS011;50943;51.448;7.646;2022-08-19T03:00:35;30.40;;;22.30;;
5831;SDS011;50943;51.448;7.646;2022-08-19T03:03:01;26.67;;;19.57;;
5831;SDS011;50943;51.448;7.646;2022-08-19T03:05:28;35.17;;;23.70;;
5831;SDS011;50943;51.448;7.646;2022-08-19T03:07:55;32.90;;;23.00;;
5831;SDS011;50943;51.448;7.646;2022-08-19T03:10:22;25.80;;;19.50;;
5831;SDS011;50943;51.448;7.646;2022-08-19T03:12:48;28.60;;;18.70;;
5831;SDS011;50943;51.448;7.646;2022-08-19T03:15:14;28.60;;;19.87;;
5831;SDS011;50943;51.448;7.646;2022-08-19T03:17:41;29.03;;;20.10;;
5831;SDS011;50943;51.448;7.646;2022-08-19T03:20:07;28.90;;;19.33;;
5831;SDS011;50943;51.448;7.646;2022-08-19T03:22:34;28.90;;;19.93;;
5831;SDS011;50943;51.448;7.646;2022-08-19T03:25:02;34.37;;;20.73;;
5831;SDS011;50943;51.448;7.646;2022-08-19T03:27:28;28.67;;;21.37;;
5831;SDS011;50943;51.448;7.646;2022-08-19T03:29:55;37.20;;;24.03;;
5831;SDS011;50943;51.448;7.646;2022-08-19T03:32:21;32.27;;;23.43;;
5831;SDS011;50943;51.448;7.646;2022-08-19T03:34:48;33.83;;;24.33;;
5831;SDS011;50943;51.448;7.646;2022-08-19T03:37:15;35.17;;;23.00;;
5831;SDS011;50943;51.448;7.646;2022-08-19T03:39:42;35.07;;;23.40;;
5831;SDS011;50943;51.448;7.646;2022-08-19T03:42:10;34.37;;;23.47;;
5831;SDS011;50943;51.448;7.646;2022-08-19T03:44:37;34.73;;;22.40;;
5831;SDS011;50943;51.448;7.646;2022-08-19T03:47:04;35.73;;;24.60;;
5831;SDS011;50943;51.448;7.646;2022-08-19T03:49:32;39.63;;;24.90;;
5831;SDS011;50943;51.448;7.646;2022-08-19T03:52:00;34.63;;;22.90;;
5831;SDS011;50943;51.448;7.646;2022-08-19T03:54:27;33.00;;;23.47;;
5831;SDS011;50943;51.448;7.646;2022-08-19T03:56:54;32.90;;;24.13;;
5831;SDS011;50943;51.448;7.646;2022-08-19T03:59:24;37.60;;;25.70;;
5831;SDS011;50943;51.448;7.646;2022-08-19T04:01:51;40.87;;;26.13;;
5831;SDS011;50943;51.448;7.646;2022-08-19T04:04:17;32.50;;;23.97;;
5831;SDS011;50943;51.448;7.646;2022-08-19T04:06:43;37.37;;;24.30;;
5831;SDS011;50943;51.448;7.646;2022-08-19T04:09:12;43.73;;;25.13;;
5831;SDS011;50943;51.448;7.646;2022-08-19T04:11:39;35.63;;;24.33;;
5831;SDS011;50943;51.448;7.646;2022-08-19T04:14:06;40.37;;;25.40;;
5831;SDS011;50943;51.448;7.646;2022-08-19T04:16:34;34.03;;;25.43;;
5831;SDS011;50943;51.448;7.646;2022-08-19T04:19:01;34.17;;;25.27;;
5831;SDS011;50943;51.448;7.646;2022-08-19T04:21:29;37.33;;;25.40;;
5831;SDS011;50943;51.448;7.646;2022-08-19T04:23:55;43.60;;;29.00;;
5831;SDS011;50943;51.448;7.646;2022-08-19T04:26:23;40.90;;;27.27;;
5831;SDS011;50943;51.448;7.646;2022-08-19T04:28:49;41.73;;;28.00;;
5831;SDS011;50943;51.448;7.646;2022-08-19T04:31:17;47.70;;;30.73;;
5831;SDS011;50943;51.448;7.646;2022-08-19T04:33:45;45.07;;;30.30;;
5831;SDS011;50943;51.448;7.646;2022-08-19T04:36:15;44.43;;;29.83;;
5831;SDS011;50943;51.448;7.646;2022-08-19T04:38:42;43.43;;;28.00;;
5831;SDS011;50943;51.448;7.646;2022-08-19T04:41:08;42.93;;;28.33;;
5831;SDS011;50943;51.448;7.646;2022-08-19T04:43:52;41.97;;;28.67;;
5831;SDS011;50943;51.448;7.646;2022-08-19T04:46:18;40.63;;;26.53;;
5831;SDS011;50943;51.448;7.646;2022-08-19T04:48:46;34.43;;;25.17;;
5831;SDS011;50943;51.448;7.646;2022-08-19T04:51:13;35.33;;;25.33;;
5831;SDS011;50943;51.448;7.646;2022-08-19T04:53:40;36.87;;;25.07;;
5831;SDS011;50943;51.448;7.646;2022-08-19T04:56:08;31.77;;;24.03;;
5831;SDS011;50943;51.448;7.646;2022-08-19T04:58:35;31.17;;;23.70;;
5831;SDS011;50943;51.448;7.646;2022-08-19T05:01:02;39.27;;;24.60;;
5831;SDS011;50943;51.448;7.646;2022-08-19T05:03:28;44.60;;;24.90;;
5831;SDS011;50943;51.448;7.646;2022-08-19T05:05:59;37.83;;;23.27;;
5831;SDS011;50943;51.448;7.646;2022-08-19T05:08:30;34.67;;;23.77;;
5831;SDS011;50943;51.448;7.646;2022-08-19T05:10:57;33.13;;;23.20;;
5831;SDS011;50943;51.448;7.646;2022-08-19T05:13:23;34.40;;;22.73;;
5831;SDS011;50943;51.448;7.646;2022-08-19T05:15:53;30.33;;;21.83;;
5831;SDS011;50943;51.448;7.646;2022-08-19T05:18:19;27.10;;;20.30;;
5831;SDS011;50943;51.448;7.646;2022-08-19T05:21:06;29.70;;;22.90;;
5831;SDS011;50943;51.448;7.646;2022-08-19T05:23:50;34.17;;;23.10;;
5831;SDS011;50943;51.448;7.646;2022-08-19T05:26:17;32.57;;;23.50;;
5831;SDS011;50943;51.448;7.646;2022-08-19T05:28:44;36.50;;;24.23;;
5831;SDS011;50943;51.448;7.646;2022-08-19T05:31:10;36.17;;;24.60;;
5831;SDS011;50943;51.448;7.646;2022-08-19T05:33:37;38.43;;;26.20;;
5831;SDS011;50943;51.448;7.646;2022-08-19T05:36:04;40.80;;;27.03;;
5831;SDS011;50943;51.448;7.646;2022-08-19T05:38:33;40.53;;;27.63;;
5831;SDS011;50943;51.448;7.646;2022-08-19T05:41:00;42.60;;;26.20;;
5831;SDS011;50943;51.448;7.646;2022-08-19T05:43:27;38.00;;;23.37;;
5831;SDS011;50943;51.448;7.646;2022-08-19T05:45:54;31.27;;;21.73;;
5831;SDS011;50943;51.448;7.646;2022-08-19T05:48:20;33.30;;;23.90;;
5831;SDS011;50943;51.448;7.646;2022-08-19T05:50:47;32.43;;;22.37;;
5831;SDS011;50943;51.448;7.646;2022-08-19T05:53:15;29.53;;;21.90;;
5831;SDS011;50943;51.448;7.646;2022-08-19T05:55:43;28.07;;;22.37;;
5831;SDS011;50943;51.448;7.646;2022-08-19T05:58:09;26.90;;;21.27;;
5831;SDS011;50943;51.448;7.646;2022-08-19T06:00:36;30.90;;;22.73;;
5831;SDS011;50943;51.448;7.646;2022-08-19T06:03:03;31.13;;;21.53;;
5831;SDS011;50943;51.448;7.646;2022-08-19T06:05:30;30.10;;;22.90;;
5831;SDS011;50943;51.448;7.646;2022-08-19T06:07:56;35.93;;;23.57;;
5831;SDS011;50943;51.448;7.646;2022-08-19T06:10:23;30.53;;;21.90;;
5831;SDS011;50943;51.448;7.646;2022-08-19T06:12:52;33.53;;;21.47;;
5831;SDS011;50943;51.448;7.646;2022-08-19T06:15:19;34.63;;;23.77;;
5831;SDS011;50943;51.448;7.646;2022-08-19T06:17:47;29.20;;;21.23;;
5831;SDS011;50943;51.448;7.646;2022-08-19T06:20:14;33.30;;;23.87;;
5831;SDS011;50943;51.448;7.646;2022-08-19T06:22:43;32.77;;;22.97;;
5831;SDS011;50943;51.448;7.646;2022-08-19T06:25:10;33.90;;;23.87;;
5831;SDS011;50943;51.448;7.646;2022-08-19T06:27:37;32.23;;;24.00;;
5831;SDS011;50943;51.448;7.646;2022-08-19T06:30:06;32.53;;;23.53;;
5831;SDS011;50943;51.448;7.646;2022-08-19T06:32:32;33.80;;;23.53;;
5831;SDS011;50943;51.448;7.646;2022-08-19T06:34:59;37.80;;;24.30;;
5831;SDS011;50943;51.448;7.646;2022-08-19T06:37:25;33.60;;;23.00;;
5831;SDS011;50943;51.448;7.646;2022-08-19T06:39:52;29.73;;;22.43;;
5831;SDS011;50943;51.448;7.646;2022-08-19T06:42:18;30.27;;;21.70;;
5831;SDS011;50943;51.448;7.646;2022-08-19T06:44:45;34.23;;;22.20;;
5831;SDS011;50943;51.448;7.646;2022-08-19T06:47:15;30.90;;;21.80;;
5831;SDS011;50943;51.448;7.646;2022-08-19T06:49:42;30.93;;;22.73;;
5831;SDS011;50943;51.448;7.646;2022-08-19T06:52:09;29.80;;;23.27;;
5831;SDS011;50943;51.448;7.646;2022-08-19T06:54:36;27.43;;;21.73;;
5831;SDS011;50943;51.448;7.646;2022-08-19T06:57:03;29.50;;;23.47;;
5831;SDS011;50943;51.448;7.646;2022-08-19T06:59:29;28.43;;;22.83;;
5831;SDS011;50943;51.448;7.646;2022-08-19T07:01:57;34.90;;;23.50;;
5831;SDS011;50943;51.448;7.646;2022-08-19T07:04:27;30.27;;;21.87;;
5831;SDS011;50943;51.448;7.646;2022-08-19T07:06:56;28.90;;;21.70;;
5831;SDS011;50943;51.448;7.646;2022-08-19T07:09:23;26.80;;;19.87;;
5831;SDS011;50943;51.448;7.646;2022-08-19T07:11:50;25.90;;;19.87;;
5831;SDS011;50943;51.448;7.646;2022-08-19T07:14:18;27.90;;;19.63;;
5831;SDS011;50943;51.448;7.646;2022-08-19T07:16:44;25.80;;;20.10;;
5831;SDS011;50943;51.448;7.646;2022-08-19T07:19:11;27.23;;;18.30;;
5831;SDS011;50943;51.448;7.646;2022-08-19T07:21:39;25.03;;;17.00;;
5831;SDS011;50943;51.448;7.646;2022-08-19T07:24:06;22.50;;;15.23;;
5831;SDS011;50943;51.448;7.646;2022-08-19T07:26:35;21.60;;;15.60;;
5831;SDS011;50943;51.448;7.646;2022-08-19T07:29:04;17.07;;;13.77;;
5831;SDS011;50943;51.448;7.646;2022-08-19T07:31:30;18.70;;;13.67;;
5831;SDS011;50943;51.448;7.646;2022-08-19T07:33:57;16.67;;;12.23;;
5831;SDS011;50943;51.448;7.646;2022-08-19T07:36:24;17.73;;;12.50;;
5831;SDS011;50943;51.448;7.646;2022-08-19T07:38:58;17.03;;;12.77;;
5831;SDS011;50943;51.448;7.646;2022-08-19T07:41:25;16.50;;;12.47;;
5831;SDS011;50943;51.448;7.646;2022-08-19T07:43:53;16.90;;;11.50;;
5831;SDS011;50943;51.448;7.646;2022-08-19T07:46:20;13.67;;;11.17;;
5831;SDS011;50943;51.448;7.646;2022-08-19T07:48:48;14.73;;;11.07;;
5831;SDS011;50943;51.448;7.646;2022-08-19T07:51:16;16.20;;;11.63;;
5831;SDS011;50943;51.448;7.646;2022-08-19T07:53:43;16.00;;;10.20;;
5831;SDS011;50943;51.448;7.646;2022-08-19T07:56:12;16.80;;;9.67;;
5831;SDS011;50943;51.448;7.646;2022-08-19T07:58:40;15.83;;;10.40;;
5831;SDS011;50943;51.448;7.646;2022-08-19T08:01:07;16.40;;;10.40;;
5831;SDS011;50943;51.448;7.646;2022-08-19T08:03:35;16.70;;;10.30;;
5831;SDS011;50943;51.448;7.646;2022-08-19T08:06:19;18.27;;;11.70;;
5831;SDS011;50943;51.448;7.646;2022-08-19T08:09:03;14.47;;;10.60;;
5831;SDS011;50943;51.448;7.646;2022-08-19T08:11:48;14.53;;;10.70;;
5831;SDS011;50943;51.448;7.646;2022-08-19T08:14:15;17.13;;;11.60;;
5831;SDS011;50943;51.448;7.646;2022-08-19T08:16:42;13.83;;;10.67;;
5831;SDS011;50943;51.448;7.646;2022-08-19T08:19:11;15.17;;;10.00;;
5831;SDS011;50943;51.448;7.646;2022-08-19T08:21:37;16.20;;;10.30;;
5831;SDS011;50943;51.448;7.646;2022-08-19T08:24:04;13.90;;;10.40;;
5831;SDS011;50943;51.448;7.646;2022-08-19T08:26:30;14.53;;;11.17;;
5831;SDS011;50943;51.448;7.646;2022-08-19T08:28:58;14.50;;;11.80;;
5831;SDS011;50943;51.448;7.646;2022-08-19T08:31:25;14.23;;;10.27;;
5831;SDS011;50943;51.448;7.646;2022-08-19T08:33:51;16.13;;;11.10;;
5831;SDS011;50943;51.448;7.646;2022-08-19T08:36:18;16.20;;;12.20;;
5831;SDS011;50943;51.448;7.646;2022-08-19T08:38:44;16.97;;;10.53;;
5831;SDS011;50943;51.448;7.646;2022-08-19T08:41:13;16.17;;;11.57;;
5831;SDS011;50943;51.448;7.646;2022-08-19T08:43:45;12.77;;;10.63;;
5831;SDS011;50943;51.448;7.646;2022-08-19T08:46:14;11.07;;;9.70;;
5831;SDS011;50943;51.448;7.646;2022-08-19T08:48:44;19.40;;;10.60;;
5831;SDS011;50943;51.448;7.646;2022-08-19T08:51:14;14.97;;;10.13;;
5831;SDS011;50943;51.448;7.646;2022-08-19T08:53:42;13.83;;;8.40;;
5831;SDS011;50943;51.448;7.646;2022-08-19T08:56:10;9.77;;;6.43;;
5831;SDS011;50943;51.448;7.646;2022-08-19T08:58:41;10.27;;;7.07;;
5831;SDS011;50943;51.448;7.646;2022-08-19T09:01:11;7.23;;;6.53;;
5831;SDS011;50943;51.448;7.646;2022-08-19T09:03:39;10.03;;;6.60;;
5831;SDS011;50943;51.448;7.646;2022-08-19T09:06:11;8.27;;;6.10;;
5831;SDS011;50943;51.448;7.646;2022-08-19T09:08:40;6.30;;;5.60;;
5831;SDS011;50943;51.448;7.646;2022-08-19T09:11:10;15.60;;;7.93;;
5831;SDS011;50943;51.448;7.646;2022-08-19T09:13:41;8.00;;;7.20;;
5831;SDS011;50943;51.448;7.646;2022-08-19T09:16:12;6.27;;;5.40;;
5831;SDS011;50943;51.448;7.646;2022-08-19T09:18:43;8.57;;;7.10;;
5831;SDS011;50943;51.448;7.646;2022-08-19T09:21:11;7.80;;;6.30;;
5831;SDS011;50943;51.448;7.646;2022-08-19T09:23:38;8.63;;;6.70;;
5831;SDS011;50943;51.448;7.646;2022-08-19T09:26:08;7.90;;;6.30;;
5831;SDS011;50943;51.448;7.646;2022-08-19T09:28:35;6.77;;;6.07;;
5831;SDS011;50943;51.448;7.646;2022-08-19T09:31:02;6.57;;;5.63;;
5831;SDS011;50943;51.448;7.646;2022-08-19T09:33:28;7.43;;;6.13;;
5831;SDS011;50943;51.448;7.646;2022-08-19T09:36:03;9.10;;;7.50;;
5831;SDS011;50943;51.448;7.646;2022-08-19T09:38:29;8.43;;;7.50;;
5831;SDS011;50943;51.448;7.646;2022-08-19T09:40:56;9.00;;;6.00;;
5831;SDS011;50943;51.448;7.646;2022-08-19T09:43:22;7.60;;;6.30;;
5831;SDS011;50943;51.448;7.646;2022-08-19T09:45:52;8.27;;;5.93;;
5831;SDS011;50943;51.448;7.646;2022-08-19T09:48:18;9.93;;;6.10;;
5831;SDS011;50943;51.448;7.646;2022-08-19T09:50:46;13.17;;;7.80;;
5831;SDS011;50943;51.448;7.646;2022-08-19T09:53:14;8.60;;;6.67;;
5831;SDS011;50943;51.448;7.646;2022-08-19T09:55:41;6.93;;;6.23;;
5831;SDS011;50943;51.448;7.646;2022-08-19T09:58:07;9.40;;;6.27;;
5831;SDS011;50943;51.448;7.646;2022-08-19T10:00:34;6.80;;;5.60;;
5831;SDS011;50943;51.448;7.646;2022-08-19T10:03:03;9.60;;;7.13;;
5831;SDS011;50943;51.448;7.646;2022-08-19T10:05:29;11.90;;;8.30;;
5831;SDS011;50943;51.448;7.646;2022-08-19T10:08:14;9.27;;;7.20;;
5831;SDS011;50943;51.448;7.646;2022-08-19T10:10:41;11.40;;;8.10;;
5831;SDS011;50943;51.448;7.646;2022-08-19T10:13:09;17.27;;;8.20;;
5831;SDS011;50943;51.448;7.646;2022-08-19T10:15:35;9.90;;;8.30;;
5831;SDS011;50943;51.448;7.646;2022-08-19T10:18:04;10.77;;;8.83;;
5831;SDS011;50943;51.448;7.646;2022-08-19T10:20:30;13.40;;;9.00;;
5831;SDS011;50943;51.448;7.646;2022-08-19T10:22:57;9.57;;;7.50;;
5831;SDS011;50943;51.448;7.646;2022-08-19T10:25:25;10.70;;;7.80;;
5831;SDS011;50943;51.448;7.646;2022-08-19T10:27:52;9.77;;;7.10;;
5831;SDS011;50943;51.448;7.646;2022-08-19T10:30:18;10.63;;;6.60;;
5831;SDS011;50943;51.448;7.646;2022-08-19T10:32:45;8.60;;;6.67;;
5831;SDS011;50943;51.448;7.646;2022-08-19T10:35:11;7.80;;;6.60;;
5831;SDS011;50943;51.448;7.646;2022-08-19T10:37:38;12.03;;;9.40;;
5831;SDS011;50943;51.448;7.646;2022-08-19T10:40:06;13.17;;;7.50;;
5831;SDS011;50943;51.448;7.646;2022-08-19T10:42:34;9.27;;;5.97;;
5831;SDS011;50943;51.448;7.646;2022-08-19T10:45:01;6.63;;;5.53;;
5831;SDS011;50943;51.448;7.646;2022-08-19T10:47:28;7.77;;;7.00;;
5831;SDS011;50943;51.448;7.646;2022-08-19T10:49:54;9.83;;;6.00;;
5831;SDS011;50943;51.448;7.646;2022-08-19T10:52:38;10.43;;;7.30;;
5831;SDS011;50943;51.448;7.646;2022-08-19T10:55:05;8.30;;;7.50;;
5831;SDS011;50943;51.448;7.646;2022-08-19T10:57:51;11.90;;;7.20;;
5831;SDS011;50943;51.448;7.646;2022-08-19T11:00:19;10.60;;;9.50;;
5831;SDS011;50943;51.448;7.646;2022-08-19T11:02:45;14.83;;;11.47;;
5831;SDS011;50943;51.448;7.646;2022-08-19T11:05:12;12.23;;;10.13;;
5831;SDS011;50943;51.448;7.646;2022-08-19T11:07:39;12.03;;;10.30;;
5831;SDS011;50943;51.448;7.646;2022-08-19T11:10:08;11.60;;;10.13;;
5831;SDS011;50943;51.448;7.646;2022-08-19T11:12:36;18.10;;;10.20;;
5831;SDS011;50943;51.448;7.646;2022-08-19T11:15:06;9.67;;;8.67;;
5831;SDS011;50943;51.448;7.646;2022-08-19T11:17:35;7.80;;;7.00;;
5831;SDS011;50943;51.448;7.646;2022-08-19T11:20:06;6.53;;;5.40;;
5831;SDS011;50943;51.448;7.646;2022-08-19T11:22:33;5.60;;;5.10;;
5831;SDS011;50943;51.448;7.646;2022-08-19T11:24:59;8.27;;;7.47;;
5831;SDS011;50943;51.448;7.646;2022-08-19T11:27:27;12.57;;;10.50;;
5831;SDS011;50943;51.448;7.646;2022-08-19T11:29:54;13.70;;;10.97;;
5831;SDS011;50943;51.448;7.646;2022-08-19T11:32:22;12.10;;;10.90;;
5831;SDS011;50943;51.448;7.646;2022-08-19T11:34:48;11.30;;;10.20;;
5831;SDS011;50943;51.448;7.646;2022-08-19T11:37:14;16.50;;;10.63;;
5831;SDS011;50943;51.448;7.646;2022-08-19T11:39:41;14.33;;;11.47;;
5831;SDS011;50943;51.448;7.646;2022-08-19T11:42:07;10.73;;;9.63;;
5831;SDS011;50943;51.448;7.646;2022-08-19T11:44:47;12.10;;;8.10;;
5831;SDS011;50943;51.448;7.646;2022-08-19T11:47:14;9.80;;;7.57;;
5831;SDS011;50943;51.448;7.646;2022-08-19T11:49:42;6.17;;;5.57;;
5831;SDS011;50943;51.448;7.646;2022-08-19T11:52:08;6.70;;;6.00;;
5831;SDS011;50943;51.448;7.646;2022-08-19T11:54:36;7.67;;;6.60;;
5831;SDS011;50943;51.448;7.646;2022-08-19T11:57:02;7.00;;;5.70;;
5831;SDS011;50943;51.448;7.646;2022-08-19T11:59:29;6.90;;;5.77;;
5831;SDS011;50943;51.448;7.646;2022-08-19T12:01:55;6.83;;;5.63;;
5831;SDS011;50943;51.448;7.646;2022-08-19T12:04:22;6.97;;;5.57;;
5831;SDS011;50943;51.448;7.646;2022-08-19T12:06:50;6.30;;;5.70;;
5831;SDS011;50943;51.448;7.646;2022-08-19T12:09:17;7.80;;;5.23;;
5831;SDS011;50943;51.448;7.646;2022-08-19T12:11:43;6.23;;;4.90;;
5831;SDS011;50943;51.448;7.646;2022-08-19T12:14:12;7.63;;;5.23;;
5831;SDS011;50943;51.448;7.646;2022-08-19T12:16:39;7.57;;;6.87;;
5831;SDS011;50943;51.448;7.646;2022-08-19T12:19:06;6.23;;;5.37;;
5831;SDS011;50943;51.448;7.646;2022-08-19T12:21:34;7.20;;;5.10;;
5831;SDS011;50943;51.448;7.646;2022-08-19T12:24:02;6.23;;;5.70;;
5831;SDS011;50943;51.448;7.646;2022-08-19T12:26:29;7.10;;;6.13;;
5831;SDS011;50943;51.448;7.646;2022-08-19T12:28:56;5.87;;;5.37;;
5831;SDS011;50943;51.448;7.646;2022-08-19T12:31:24;7.73;;;6.37;;
5831;SDS011;50943;51.448;7.646;2022-08-19T12:33:50;8.93;;;5.53;;
5831;SDS011;50943;51.448;7.646;2022-08-19T12:36:17;5.93;;;5.47;;
5831;SDS011;50943;51.448;7.646;2022-08-19T12:38:44;6.47;;;5.50;;
5831;SDS011;50943;51.448;7.646;2022-08-19T12:41:13;7.43;;;6.30;;
5831;SDS011;50943;51.448;7.646;2022-08-19T12:43:40;9.80;;;7.30;;
5831;SDS011;50943;51.448;7.646;2022-08-19T12:46:07;7.17;;;6.30;;
5831;SDS011;50943;51.448;7.646;2022-08-19T12:48:33;8.30;;;7.30;;
5831;SDS011;50943;51.448;7.646;2022-08-19T12:51:00;9.70;;;7.23;;
5831;SDS011;50943;51.448;7.646;2022-08-19T12:53:26;10.67;;;7.30;;
5831;SDS011;50943;51.448;7.646;2022-08-19T12:55:54;11.67;;;8.87;;
5831;SDS011;50943;51.448;7.646;2022-08-19T12:58:23;11.23;;;8.07;;
5831;SDS011;50943;51.448;7.646;2022-08-19T13:00:49;11.27;;;10.07;;
5831;SDS011;50943;51.448;7.646;2022-08-19T13:03:16;12.20;;;10.10;;
5831;SDS011;50943;51.448;7.646;2022-08-19T13:05:42;9.93;;;8.37;;
5831;SDS011;50943;51.448;7.646;2022-08-19T13:08:09;12.50;;;9.77;;
5831;SDS011;50943;51.448;7.646;2022-08-19T13:10:36;10.70;;;9.70;;
5831;SDS011;50943;51.448;7.646;2022-08-19T13:13:06;11.83;;;8.90;;
5831;SDS011;50943;51.448;7.646;2022-08-19T13:15:35;12.50;;;9.60;;
5831;SDS011;50943;51.448;7.646;2022-08-19T13:18:02;12.13;;;8.80;;
5831;SDS011;50943;51.448;7.646;2022-08-19T13:20:29;12.80;;;9.47;;
5831;SDS011;50943;51.448;7.646;2022-08-19T13:22:55;12.10;;;8.00;;
5831;SDS011;50943;51.448;7.646;2022-08-19T13:25:22;8.83;;;7.80;;
5831;SDS011;50943;51.448;7.646;2022-08-19T13:27:49;8.53;;;7.60;;
5831;SDS011;50943;51.448;7.646;2022-08-19T13:30:16;8.60;;;7.40;;
5831;SDS011;50943;51.448;7.646;2022-08-19T13:33:01;7.83;;;7.03;;
5831;SDS011;50943;51.448;7.646;2022-08-19T13:35:40;7.63;;;6.53;;
5831;SDS011;50943;51.448;7.646;2022-08-19T13:38:07;9.27;;;6.70;;
5831;SDS011;50943;51.448;7.646;2022-08-19T13:40:33;8.50;;;6.53;;
5831;SDS011;50943;51.448;7.646;2022-08-19T13:43:00;8.00;;;7.20;;
5831;SDS011;50943;51.448;7.646;2022-08-19T13:45:28;11.20;;;8.23;;
5831;SDS011;50943;51.448;7.646;2022-08-19T13:47:55;10.90;;;7.90;;
5831;SDS011;50943;51.448;7.646;2022-08-19T13:50:24;11.07;;;8.10;;
5831;SDS011;50943;51.448;7.646;2022-08-19T13:52:52;9.70;;;7.83;;
5831;SDS011;50943;51.448;7.646;2022-08-19T13:55:18;9.50;;;7.57;;
5831;SDS011;50943;51.448;7.646;2022-08-19T13:57:45;14.63;;;6.83;;
5831;SDS011;50943;51.448;7.646;2022-08-19T14:00:13;7.57;;;6.77;;
5831;SDS011;50943;51.448;7.646;2022-08-19T14:02:40;12.40;;;7.00;;
5831;SDS011;50943;51.448;7.646;2022-08-19T14:05:09;11.63;;;6.17;;
5831;SDS011;50943;51.448;7.646;2022-08-19T14:07:38;10.90;;;6.60;;
5831;SDS011;50943;51.448;7.646;2022-08-19T14:10:05;10.40;;;6.37;;
5831;SDS011;50943;51.448;7.646;2022-08-19T14:12:32;8.03;;;6.03;;
5831;SDS011;50943;51.448;7.646;2022-08-19T14:14:59;6.87;;;5.07;;
5831;SDS011;50943;51.448;7.646;2022-08-19T14:17:25;5.43;;;4.77;;
5831;SDS011;50943;51.448;7.646;2022-08-19T14:19:56;7.87;;;5.00;;
5831;SDS011;50943;51.448;7.646;2022-08-19T14:22:22;5.73;;;5.17;;
5831;SDS011;50943;51.448;7.646;2022-08-19T14:24:50;6.67;;;4.97;;
5831;SDS011;50943;51.448;7.646;2022-08-19T14:27:16;6.03;;;5.00;;
5831;SDS011;50943;51.448;7.646;2022-08-19T14:29:43;8.70;;;5.50;;
5831;SDS011;50943;51.448;7.646;2022-08-19T14:32:09;8.10;;;5.70;;
5831;SDS011;50943;51.448;7.646;2022-08-19T14:34:37;6.30;;;4.73;;
5831;SDS011;50943;51.448;7.646;2022-08-19T14:37:03;5.83;;;5.03;;
5831;SDS011;50943;51.448;7.646;2022-08-19T14:39:31;5.73;;;4.77;;
5831;SDS011;50943;51.448;7.646;2022-08-19T14:41:58;12.03;;;5.40;;
5831;SDS011;50943;51.448;7.646;2022-08-19T14:44:25;5.13;;;4.63;;
5831;SDS011;50943;51.448;7.646;2022-08-19T14:46:51;8.43;;;4.20;;